Time;durP1;ratioP1;P1;durP2;ratioP2;P2;SDS_P1;SDS_P2;PMS_P1;PMS_P2;Temp;Humidity;BMP_temperature;BMP_pressure;BME280_temperature;BME280_humidity;BME280_pressure;Samples;Min_cycle;Max_cycle;Signal;HPM_P1;HPM_P2
2022/06/13 00:17:12;;;;;;;0.00;0.00;;;13.50;99.90;;;;;;5860947;24;20557;-85
2022/06/13 00:39:42;;;;;;;0.00;0.00;;;13.80;99.90;;;;;;6087372;23;20535;-87
2022/06/13 00:42:23;;;;;;;0.00;0.00;;;13.80;99.90;;;;;;6047503;23;20430;-94
2022/06/13 00:45:10;;;;;;;0.00;0.00;;;13.90;99.90;;;;;;6106178;23;20488;-92
2022/06/13 00:47:42;;;;;;;0.00;0.00;;;14.00;99.90;;;;;;6100290;23;20420;-93
2022/06/13 00:50:16;;;;;;;0.00;0.00;;;14.10;99.90;;;;;;6097055;23;20440;-92
2022/06/13 00:52:49;;;;;;;0.00;0.00;;;14.20;99.90;;;;;;6104997;23;20409;-93
2022/06/13 00:55:25;;;;;;;0.00;0.00;;;14.20;99.90;;;;;;6108118;23;21166;-93
2022/06/13 00:57:57;;;;;;;0.00;0.00;;;14.20;99.90;;;;;;6114913;23;20414;-94
2022/06/13 01:00:33;;;;;;;0.00;0.00;;;14.20;99.90;;;;;;6113617;23;20666;-91
2022/06/13 01:03:02;;;;;;;0.00;0.00;;;14.20;99.90;;;;;;6109789;23;20708;-93
2022/06/13 01:05:35;;;;;;;0.00;0.00;;;14.20;99.90;;;;;;6109238;23;20392;-92
2022/06/13 01:08:07;;;;;;;0.00;0.00;;;14.20;99.90;;;;;;6108599;23;20455;-91
2022/06/13 01:13:36;;;;;;;0.00;0.00;;;14.20;99.90;;;;;;6112763;23;20443;-94
2022/06/13 01:19:06;;;;;;;0.00;0.00;;;14.20;99.90;;;;;;6117299;23;20496;-93
2022/06/13 01:21:43;;;;;;;0.00;0.00;;;14.20;99.90;;;;;;6113660;23;20416;-93
2022/06/13 01:24:54;;;;;;;0.00;0.00;;;14.20;99.90;;;;;;6108843;23;20441;-92
2022/06/13 01:28:00;;;;;;;0.00;0.00;;;14.10;99.90;;;;;;6057636;23;20470;-91
2022/06/13 01:30:55;;;;;;;0.00;0.00;;;14.00;99.90;;;;;;6101161;23;20471;-92
2022/06/13 01:33:59;;;;;;;0.00;0.00;;;14.00;99.90;;;;;;6099488;23;20428;-93
2022/06/13 01:36:50;;;;;;;0.00;0.00;;;14.00;99.90;;;;;;6117585;23;20495;-94
2022/06/13 01:39:31;;;;;;;0.00;0.00;;;13.90;99.90;;;;;;6110674;23;20415;-93
2022/06/13 01:42:06;;;;;;;0.00;0.00;;;13.80;99.90;;;;;;6112560;23;20475;-93
2022/06/13 01:44:44;;;;;;;0.00;0.00;;;13.80;99.90;;;;;;6112670;23;20420;-94
2022/06/13 01:47:28;;;;;;;0.00;0.00;;;13.80;99.90;;;;;;6111797;23;20411;-93
2022/06/13 01:50:22;;;;;;;0.00;0.00;;;13.80;99.90;;;;;;6105705;23;20495;-92
2022/06/13 03:49:09;;;;;;;0.00;0.00;;;14.20;99.90;;;;;;5979179;23;20407;-85
2022/06/13 03:52:13;;;;;;;0.00;0.00;;;14.20;99.90;;;;;;6006523;23;20413;-83
2022/06/13 03:55:00;;;;;;;0.00;0.00;;;14.20;99.90;;;;;;5849258;24;20604;-86
2022/06/13 04:02:03;;;;;;;0.00;0.00;;;14.20;99.90;;;;;;5778843;24;20445;-86
2022/06/13 04:31:45;;;;;;;0.00;0.00;;;14.70;99.90;;;;;;6091162;23;20444;-85
2022/06/13 04:34:22;;;;;;;0.00;0.00;;;14.70;99.90;;;;;;6085449;23;20516;-86
2022/06/13 04:52:44;;;;;;;0.00;0.00;;;14.20;99.90;;;;;;5861389;24;20460;-85
2022/06/13 04:55:31;;;;;;;0.00;0.00;;;14.10;99.90;;;;;;5864444;24;20445;-86
2022/06/13 05:05:22;;;;;;;0.00;0.00;;;14.00;99.90;;;;;;6004021;23;20545;-86
2022/06/13 05:08:58;;;;;;;0.00;0.00;;;14.00;99.90;;;;;;6058772;23;20936;-86
2022/06/13 05:12:13;;;;;;;0.00;0.00;;;13.90;99.90;;;;;;6068144;23;20462;-85
2022/06/13 05:15:41;;;;;;;;;;;;;;;;;;;;;
2022/06/13 05:30:29;;;;;;;0.00;0.00;;;14.60;99.90;;;;;;6070583;23;20456;-86
2022/06/13 05:37:37;;;;;;;0.00;0.00;;;15.60;99.90;;;;;;5856301;24;20492;-91
2022/06/13 05:40:09;;;;;;;0.00;0.00;;;15.80;99.90;;;;;;6091070;23;21063;-89
2022/06/13 05:42:37;;;;;;;0.00;0.00;;;15.90;99.90;;;;;;6096353;23;21070;-89
2022/06/13 05:45:07;;;;;;;0.00;0.00;;;15.80;99.90;;;;;;6099207;23;20533;-93
2022/06/13 05:47:35;;;;;;;0.00;0.00;;;15.80;99.90;;;;;;6109077;23;20405;-92
2022/06/13 05:50:07;;;;;;;0.00;0.00;;;15.80;99.90;;;;;;6117190;23;20404;-93
2022/06/13 05:52:46;;;;;;;0.00;0.00;;;15.80;99.90;;;;;;6115604;23;20407;-93
2022/06/13 05:55:31;;;;;;;0.00;0.00;;;15.80;99.90;;;;;;6118654;23;20392;-93
2022/06/13 05:58:08;;;;;;;0.00;0.00;;;15.90;99.90;;;;;;6118528;23;20396;-92
2022/06/13 06:00:53;;;;;;;0.00;0.00;;;16.00;99.90;;;;;;6115685;23;20400;-92
2022/06/13 06:03:33;;;;;;;0.00;0.00;;;16.20;99.90;;;;;;6116587;23;20416;-93
2022/06/13 06:06:28;;;;;;;;;;;;;;;;;;;;;
2022/06/13 06:09:32;;;;;;;0.00;0.00;;;16.40;99.90;;;;;;6113786;23;20482;-93
2022/06/13 06:24:11;;;;;;;0.00;0.00;;;16.70;99.90;;;;;;6082854;23;20522;-95
2022/06/13 06:26:52;;;;;;;0.00;0.00;;;16.70;99.90;;;;;;6071155;23;20408;-91
2022/06/13 07:15:00;;;;;;;0.00;0.00;;;18.20;99.90;;;;;;5967051;24;20430;-92
2022/06/13 07:17:28;;;;;;;0.00;0.00;;;18.10;99.90;;;;;;5961443;24;20619;-91
2022/06/13 07:20:38;;;;;;;0.00;0.00;;;18.00;99.90;;;;;;5963073;24;20496;-96
2022/06/13 07:23:23;;;;;;;0.00;0.00;;;17.90;99.90;;;;;;5970984;24;20461;-96
2022/06/13 07:25:57;;;;;;;0.00;0.00;;;17.70;99.90;;;;;;6048787;23;20529;-94
2022/06/13 09:08:11;;;;;;;0.00;0.00;;;14.10;99.90;;;;;;6079444;23;20448;-87
2022/06/13 09:14:57;;;;;;;0.00;0.00;;;14.30;99.90;;;;;;5977948;23;20432;-90
2022/06/13 09:21:36;;;;;;;0.00;0.00;;;14.30;99.90;;;;;;5819789;24;20599;-87
2022/06/13 09:24:23;;;;;;;0.00;0.00;;;14.50;99.90;;;;;;5975431;23;20690;-85
2022/06/13 09:31:04;;;;;;;0.00;0.00;;;14.60;99.90;;;;;;5701834;24;20415;-85
2022/06/13 09:33:42;;;;;;;0.00;0.00;;;14.70;99.90;;;;;;5757431;24;20510;-87
2022/06/13 09:42:52;;;;;;;0.00;0.00;;;14.80;99.90;;;;;;5819070;24;20447;-86
2022/06/13 09:45:32;;;;;;;0.00;0.00;;;14.80;99.90;;;;;;5836553;24;20566;-86
2022/06/13 09:48:13;;;;;;;0.00;0.00;;;14.90;99.90;;;;;;5836061;24;20460;-85
2022/06/13 09:51:06;;;;;;;0.00;0.00;;;15.00;99.90;;;;;;5845490;24;20393;-86
2022/06/13 10:01:06;;;;;;;0.00;0.00;;;15.20;99.90;;;;;;5835357;24;20427;-86
2022/06/13 10:04:11;;;;;;;0.00;0.00;;;15.10;99.90;;;;;;5860587;24;20454;-90
2022/06/13 10:07:08;;;;;;;0.00;0.00;;;15.10;99.90;;;;;;5895927;24;20414;-91
2022/06/13 13:16:13;;;;;;;;;;;;;;;;;;;;;
2022/06/13 17:41:47;;;;;;;0.00;0.00;;;16.50;99.90;;;;;;6062448;23;20452;-89
2022/06/13 17:44:19;;;;;;;0.00;0.00;;;16.40;99.90;;;;;;6065699;23;20451;-87
2022/06/13 18:01:55;;;;;;;0.00;0.00;;;16.00;99.90;;;;;;5815673;24;20439;-87
2022/06/13 18:12:27;;;;;;;0.00;0.00;;;15.80;99.90;;;;;;5736046;25;20423;-90
2022/06/13 18:25:45;;;;;;;0.00;0.00;;;15.60;99.90;;;;;;5583798;25;20224;-88
2022/06/13 20:16:19;;;;;;;0.00;0.00;;;14.90;99.90;;;;;;6077904;23;20642;-91
2022/06/13 20:18:57;;;;;;;0.00;0.00;;;14.80;99.90;;;;;;6072013;23;20542;-90
2022/06/13 20:22:28;;;;;;;;;;;;;;;;;;;;;
2022/06/13 20:25:23;;;;;;;0.00;0.00;;;14.40;99.90;;;;;;6061869;23;20509;-89
2022/06/13 20:27:54;;;;;;;0.00;0.00;;;14.20;99.90;;;;;;6074118;23;21066;-91
2022/06/13 20:30:29;;;;;;;0.00;0.00;;;14.10;99.90;;;;;;6078230;23;20409;-93
2022/06/13 20:33:13;;;;;;;0.00;0.00;;;14.00;99.90;;;;;;6082965;23;20476;-89
2022/06/13 20:35:53;;;;;;;0.00;0.00;;;14.00;99.90;;;;;;6076398;23;20417;-91
2022/06/13 20:38:57;;;;;;;0.00;0.00;;;14.00;99.90;;;;;;6070689;23;20441;-92
2022/06/13 20:51:50;;;;;;;0.00;0.00;;;13.70;99.90;;;;;;5834124;24;20429;-91
2022/06/13 20:54:54;;;;;;;0.00;0.00;;;13.50;99.90;;;;;;5773313;24;20705;-91
2022/06/13 20:57:28;;;;;;;0.00;0.00;;;13.50;99.90;;;;;;5771550;24;20419;-90
2022/06/13 21:00:00;;;;;;;0.00;0.00;;;13.30;99.90;;;;;;5773939;24;20447;-91
2022/06/13 21:02:51;;;;;;;0.00;0.00;;;13.30;99.90;;;;;;5768025;24;20529;-91
2022/06/13 21:05:37;;;;;;;0.00;0.00;;;13.30;99.90;;;;;;5770090;24;20429;-90
2022/06/13 21:10:05;;;;;;;0.00;0.00;;;13.30;99.90;;;;;;5771672;24;20422;-92
2022/06/13 21:11:42;;;;;;;0.00;0.00;;;13.30;99.90;;;;;;5764322;24;20420;-91
2022/06/13 21:14:19;;;;;;;0.00;0.00;;;13.30;99.90;;;;;;5766478;24;20455;-92
2022/06/13 21:17:37;;;;;;;0.00;0.00;;;13.20;99.90;;;;;;5852067;24;20411;-92
2022/06/13 21:20:20;;;;;;;0.00;0.00;;;13.20;99.90;;;;;;5870618;24;20467;-91
2022/06/13 21:34:16;;;;;;;0.00;0.00;;;13.00;99.90;;;;;;5900134;24;20864;-90
2022/06/13 21:37:00;;;;;;;0.00;0.00;;;13.00;99.90;;;;;;5902333;23;20418;-92
2022/06/13 21:39:42;;;;;;;0.00;0.00;;;12.90;99.90;;;;;;6011378;23;21122;-91
2022/06/13 21:42:53;;;;;;;0.00;0.00;;;12.90;99.90;;;;;;6011045;23;20893;-91
2022/06/13 21:45:27;;;;;;;0.00;0.00;;;12.90;99.90;;;;;;6011247;23;20748;-92
2022/06/13 21:48:01;;;;;;;0.00;0.00;;;12.80;99.90;;;;;;6024344;23;20423;-93
2022/06/13 21:50:40;;;;;;;0.00;0.00;;;12.70;99.90;;;;;;6033706;23;20418;-94
2022/06/13 21:53:19;;;;;;;0.00;0.00;;;12.70;99.90;;;;;;6076778;23;20439;-92
2022/06/13 21:55:51;;;;;;;0.00;0.00;;;12.70;99.90;;;;;;6073018;23;21032;-92
2022/06/13 21:58:20;;;;;;;0.00;0.00;;;12.70;99.90;;;;;;6071296;23;20476;-92
2022/06/13 22:00:51;;;;;;;0.00;0.00;;;12.60;99.90;;;;;;6073026;23;20485;-92
2022/06/13 22:03:22;;;;;;;0.00;0.00;;;12.60;99.90;;;;;;6069756;23;20437;-91
2022/06/13 22:05:55;;;;;;;0.00;0.00;;;12.50;99.90;;;;;;6068816;23;20441;-91
2022/06/13 22:08:24;;;;;;;0.00;0.00;;;12.50;99.90;;;;;;6070223;23;20429;-91
2022/06/13 22:10:53;;;;;;;0.00;0.00;;;12.50;99.90;;;;;;6071669;23;20406;-91
2022/06/13 22:13:21;;;;;;;0.00;0.00;;;12.50;99.90;;;;;;6072471;23;20437;-92
2022/06/13 22:15:49;;;;;;;0.00;0.00;;;12.40;99.90;;;;;;6077641;23;20413;-90
2022/06/13 22:18:20;;;;;;;0.00;0.00;;;12.40;99.90;;;;;;6081592;23;20397;-92
2022/06/13 22:20:49;;;;;;;0.00;0.00;;;12.40;99.90;;;;;;6081895;23;20493;-90
2022/06/13 22:23:20;;;;;;;0.00;0.00;;;12.40;99.90;;;;;;6082133;23;20452;-90
2022/06/13 22:26:11;;;;;;;0.00;0.00;;;12.40;99.90;;;;;;6079614;23;20464;-92
2022/06/13 22:28:40;;;;;;;0.00;0.00;;;12.40;99.90;;;;;;6080278;23;21024;-92
2022/06/13 22:31:11;;;;;;;0.00;0.00;;;12.30;99.90;;;;;;6080322;23;20931;-91
2022/06/13 22:33:43;;;;;;;0.00;0.00;;;12.20;99.90;;;;;;6079483;23;20421;-90
2022/06/13 22:39:27;;;;;;;0.00;0.00;;;12.20;99.90;;;;;;5959340;24;20452;-90
2022/06/13 22:42:00;;;;;;;0.00;0.00;;;12.20;99.90;;;;;;5959981;24;20427;-93
2022/06/13 22:44:40;;;;;;;0.00;0.00;;;12.10;99.90;;;;;;5960705;24;20541;-91
2022/06/13 22:50:07;;;;;;;0.00;0.00;;;12.10;99.90;;;;;;5959321;24;20452;-92
2022/06/13 22:52:42;;;;;;;0.00;0.00;;;12.10;99.90;;;;;;5954556;24;20468;-91
2022/06/13 22:55:29;;;;;;;0.00;0.00;;;12.10;99.90;;;;;;5955394;24;20420;-91
2022/06/13 22:58:06;;;;;;;0.00;0.00;;;12.10;99.90;;;;;;5960707;24;20416;-90
2022/06/13 23:00:47;;;;;;;0.00;0.00;;;12.00;99.90;;;;;;5966556;23;20520;-92
2022/06/13 23:03:20;;;;;;;0.00;0.00;;;12.00;99.90;;;;;;5986837;23;20426;-91
2022/06/13 23:05:58;;;;;;;0.00;0.00;;;12.00;99.90;;;;;;6022226;23;20407;-90
2022/06/13 23:08:44;;;;;;;0.00;0.00;;;12.00;99.90;;;;;;5966411;23;20434;-92
2022/06/13 23:11:21;;;;;;;0.00;0.00;;;11.90;99.90;;;;;;6012182;23;20411;-91
2022/06/13 23:13:59;;;;;;;0.00;0.00;;;11.90;99.90;;;;;;6019401;23;20976;-91
2022/06/13 23:16:44;;;;;;;0.00;0.00;;;11.90;99.90;;;;;;6020518;23;20410;-92
2022/06/13 23:19:23;;;;;;;0.00;0.00;;;11.80;99.90;;;;;;6020222;23;20575;-89
2022/06/13 23:25:24;;;;;;;0.00;0.00;;;11.80;99.90;;;;;;5987495;23;21212;-92
2022/06/13 23:28:14;;;;;;;0.00;0.00;;;11.80;99.90;;;;;;6013941;23;20514;-92
2022/06/13 23:30:56;;;;;;;0.00;0.00;;;11.70;99.90;;;;;;6011873;23;20418;-91
2022/06/13 23:33:43;;;;;;;0.00;0.00;;;11.70;99.90;;;;;;6009663;23;20430;-91
2022/06/13 23:36:18;;;;;;;0.00;0.00;;;11.80;99.90;;;;;;6011681;23;20916;-92
2022/06/13 23:38:52;;;;;;;0.00;0.00;;;11.80;99.90;;;;;;6030549;23;20406;-92
2022/06/13 23:41:27;;;;;;;0.00;0.00;;;11.80;99.90;;;;;;6090436;23;20389;-92
2022/06/13 23:44:13;;;;;;;0.00;0.00;;;11.90;99.90;;;;;;6082567;23;20437;-92
2022/06/13 23:53:25;;;;;;;0.00;0.00;;;12.10;99.90;;;;;;5953762;24;20439;-91
2022/06/13 23:55:57;;;;;;;0.00;0.00;;;12.00;99.90;;;;;;5955914;24;21247;-92
2022/06/13 23:58:27;;;;;;;0.00;0.00;;;12.10;99.90;;;;;;5953935;24;20409;-92
